sensor_id;sensor_type;location;lat;lon;timestamp;temperature;humidity
5023;DHT22;2530;47.990;7.866;2023-02-02T00:01:44;5.70;99.90
5023;DHT22;2530;47.990;7.866;2023-02-02T00:04:16;5.70;99.90
5023;DHT22;2530;47.990;7.866;2023-02-02T00:06:42;5.60;99.90
5023;DHT22;2530;47.990;7.866;2023-02-02T00:09:08;5.60;99.90
5023;DHT22;2530;47.990;7.866;2023-02-02T00:11:35;5.60;99.90
5023;DHT22;2530;47.990;7.866;2023-02-02T00:14:00;5.60;99.90
5023;DHT22;2530;47.990;7.866;2023-02-02T00:19:06;5.50;99.90
5023;DHT22;2530;47.990;7.866;2023-02-02T00:21:32;5.60;99.90
5023;DHT22;2530;47.990;7.866;2023-02-02T00:23:58;5.50;99.90
5023;DHT22;2530;47.990;7.866;2023-02-02T00:26:23;5.50;99.90
5023;DHT22;2530;47.990;7.866;2023-02-02T00:28:49;5.40;99.90
5023;DHT22;2530;47.990;7.866;2023-02-02T00:31:14;5.40;99.90
5023;DHT22;2530;47.990;7.866;2023-02-02T00:33:44;5.40;99.90
5023;DHT22;2530;47.990;7.866;2023-02-02T00:36:10;5.40;99.90
5023;DHT22;2530;47.990;7.866;2023-02-02T00:38:35;5.40;99.90
5023;DHT22;2530;47.990;7.866;2023-02-02T00:41:02;5.40;99.90
5023;DHT22;2530;47.990;7.866;2023-02-02T00:43:28;5.40;99.90
5023;DHT22;2530;47.990;7.866;2023-02-02T00:45:54;5.40;99.90
5023;DHT22;2530;47.990;7.866;2023-02-02T00:48:19;5.40;99.90
5023;DHT22;2530;47.990;7.866;2023-02-02T00:50:45;5.30;99.90
5023;DHT22;2530;47.990;7.866;2023-02-02T00:53:10;5.30;99.90
5023;DHT22;2530;47.990;7.866;2023-02-02T00:55:36;5.40;99.90
5023;DHT22;2530;47.990;7.866;2023-02-02T00:58:01;5.40;99.90
5023;DHT22;2530;47.990;7.866;2023-02-02T01:00:27;5.40;99.90
5023;DHT22;2530;47.990;7.866;2023-02-02T01:02:53;5.40;99.90
5023;DHT22;2530;47.990;7.866;2023-02-02T01:05:20;5.40;99.90
5023;DHT22;2530;47.990;7.866;2023-02-02T01:07:46;5.30;99.90
5023;DHT22;2530;47.990;7.866;2023-02-02T01:10:15;5.40;99.90
5023;DHT22;2530;47.990;7.866;2023-02-02T01:12:41;5.30;99.90
5023;DHT22;2530;47.990;7.866;2023-02-02T01:15:08;5.30;99.90
5023;DHT22;2530;47.990;7.866;2023-02-02T01:17:34;5.30;99.90
5023;DHT22;2530;47.990;7.866;2023-02-02T01:20:00;5.40;99.90
5023;DHT22;2530;47.990;7.866;2023-02-02T01:22:25;5.40;99.90
5023;DHT22;2530;47.990;7.866;2023-02-02T01:24:51;5.30;99.90
5023;DHT22;2530;47.990;7.866;2023-02-02T01:27:17;5.30;99.90
5023;DHT22;2530;47.990;7.866;2023-02-02T01:29:43;5.40;99.90
5023;DHT22;2530;47.990;7.866;2023-02-02T01:32:08;5.40;99.90
5023;DHT22;2530;47.990;7.866;2023-02-02T01:34:34;5.40;99.90
5023;DHT22;2530;47.990;7.866;2023-02-02T01:36:59;5.40;99.90
5023;DHT22;2530;47.990;7.866;2023-02-02T01:39:25;5.30;99.90
5023;DHT22;2530;47.990;7.866;2023-02-02T01:41:50;5.40;99.90
5023;DHT22;2530;47.990;7.866;2023-02-02T01:47:24;5.40;99.90
5023;DHT22;2530;47.990;7.866;2023-02-02T01:49:50;5.40;99.90
5023;DHT22;2530;47.990;7.866;2023-02-02T01:52:18;5.40;99.90
5023;DHT22;2530;47.990;7.866;2023-02-02T01:54:55;5.30;99.90
5023;DHT22;2530;47.990;7.866;2023-02-02T02:00:07;5.30;99.90
5023;DHT22;2530;47.990;7.866;2023-02-02T02:02:33;5.40;99.90
5023;DHT22;2530;47.990;7.866;2023-02-02T02:05:00;5.30;99.90
5023;DHT22;2530;47.990;7.866;2023-02-02T02:07:27;5.40;99.90
5023;DHT22;2530;47.990;7.866;2023-02-02T02:09:53;5.40;99.90
5023;DHT22;2530;47.990;7.866;2023-02-02T02:12:19;5.50;99.90
5023;DHT22;2530;47.990;7.866;2023-02-02T02:14:46;5.50;99.90
5023;DHT22;2530;47.990;7.866;2023-02-02T02:17:59;5.50;99.90
5023;DHT22;2530;47.990;7.866;2023-02-02T02:21:03;5.50;99.90
5023;DHT22;2530;47.990;7.866;2023-02-02T02:27:26;5.50;99.90
5023;DHT22;2530;47.990;7.866;2023-02-02T02:30:26;5.60;99.90
5023;DHT22;2530;47.990;7.866;2023-02-02T02:33:06;5.60;99.90
5023;DHT22;2530;47.990;7.866;2023-02-02T02:35:56;5.60;99.90
5023;DHT22;2530;47.990;7.866;2023-02-02T02:41:09;5.50;99.90
5023;DHT22;2530;47.990;7.866;2023-02-02T02:43:42;5.60;99.90
5023;DHT22;2530;47.990;7.866;2023-02-02T02:46:11;5.60;99.90
5023;DHT22;2530;47.990;7.866;2023-02-02T02:48:36;5.70;99.90
5023;DHT22;2530;47.990;7.866;2023-02-02T02:51:05;5.70;99.90
5023;DHT22;2530;47.990;7.866;2023-02-02T02:53:31;5.60;99.90
5023;DHT22;2530;47.990;7.866;2023-02-02T02:56:12;5.70;99.90
5023;DHT22;2530;47.990;7.866;2023-02-02T02:58:58;5.60;99.90
5023;DHT22;2530;47.990;7.866;2023-02-02T03:01:52;5.70;99.90
5023;DHT22;2530;47.990;7.866;2023-02-02T03:04:46;5.60;99.90
5023;DHT22;2530;47.990;7.866;2023-02-02T03:07:37;5.60;99.90
5023;DHT22;2530;47.990;7.866;2023-02-02T03:10:06;5.50;99.90
5023;DHT22;2530;47.990;7.866;2023-02-02T03:12:42;5.60;99.90
5023;DHT22;2530;47.990;7.866;2023-02-02T03:15:08;5.60;99.90
5023;DHT22;2530;47.990;7.866;2023-02-02T03:17:34;5.60;99.90
5023;DHT22;2530;47.990;7.866;2023-02-02T03:19:59;5.70;99.90
5023;DHT22;2530;47.990;7.866;2023-02-02T03:22:25;5.70;99.90
5023;DHT22;2530;47.990;7.866;2023-02-02T03:24:50;5.70;99.90
5023;DHT22;2530;47.990;7.866;2023-02-02T03:27:16;5.60;99.90
5023;DHT22;2530;47.990;7.866;2023-02-02T03:29:41;5.60;99.90
5023;DHT22;2530;47.990;7.866;2023-02-02T03:32:07;5.60;99.90
5023;DHT22;2530;47.990;7.866;2023-02-02T03:34:32;5.60;99.90
5023;DHT22;2530;47.990;7.866;2023-02-02T03:36:58;5.60;99.90
5023;DHT22;2530;47.990;7.866;2023-02-02T03:39:23;5.60;99.90
5023;DHT22;2530;47.990;7.866;2023-02-02T03:41:49;5.60;99.90
5023;DHT22;2530;47.990;7.866;2023-02-02T03:44:14;5.50;99.90
5023;DHT22;2530;47.990;7.866;2023-02-02T03:46:40;5.50;99.90
5023;DHT22;2530;47.990;7.866;2023-02-02T03:49:05;5.60;99.90
5023;DHT22;2530;47.990;7.866;2023-02-02T03:51:31;5.50;99.90
5023;DHT22;2530;47.990;7.866;2023-02-02T03:53:56;5.50;99.90
5023;DHT22;2530;47.990;7.866;2023-02-02T03:56:22;5.50;99.90
5023;DHT22;2530;47.990;7.866;2023-02-02T03:58:47;5.60;99.90
5023;DHT22;2530;47.990;7.866;2023-02-02T04:01:13;5.60;99.90
5023;DHT22;2530;47.990;7.866;2023-02-02T04:03:39;5.60;99.90
5023;DHT22;2530;47.990;7.866;2023-02-02T04:06:05;5.60;99.90
5023;DHT22;2530;47.990;7.866;2023-02-02T04:08:31;5.60;99.90
5023;DHT22;2530;47.990;7.866;2023-02-02T04:10:56;5.60;99.90
5023;DHT22;2530;47.990;7.866;2023-02-02T04:13:22;5.60;99.90
5023;DHT22;2530;47.990;7.866;2023-02-02T04:15:55;5.60;99.90
5023;DHT22;2530;47.990;7.866;2023-02-02T04:18:21;5.70;99.90
5023;DHT22;2530;47.990;7.866;2023-02-02T04:20:47;5.70;99.90
5023;DHT22;2530;47.990;7.866;2023-02-02T04:23:12;5.70;99.90
5023;DHT22;2530;47.990;7.866;2023-02-02T04:25:38;5.70;99.90
5023;DHT22;2530;47.990;7.866;2023-02-02T04:28:04;5.70;99.90
5023;DHT22;2530;47.990;7.866;2023-02-02T04:30:29;5.70;99.90
5023;DHT22;2530;47.990;7.866;2023-02-02T04:32:55;5.70;99.90
5023;DHT22;2530;47.990;7.866;2023-02-02T04:35:20;5.70;99.90
5023;DHT22;2530;47.990;7.866;2023-02-02T04:37:46;5.70;99.90
5023;DHT22;2530;47.990;7.866;2023-02-02T04:40:12;5.60;99.90
5023;DHT22;2530;47.990;7.866;2023-02-02T04:42:37;5.60;99.90
5023;DHT22;2530;47.990;7.866;2023-02-02T04:45:03;5.70;99.90
5023;DHT22;2530;47.990;7.866;2023-02-02T04:47:29;5.70;99.90
5023;DHT22;2530;47.990;7.866;2023-02-02T04:49:54;5.70;99.90
5023;DHT22;2530;47.990;7.866;2023-02-02T04:52:20;5.70;99.90
5023;DHT22;2530;47.990;7.866;2023-02-02T04:54:45;5.70;99.90
5023;DHT22;2530;47.990;7.866;2023-02-02T04:57:11;5.70;99.90
5023;DHT22;2530;47.990;7.866;2023-02-02T04:59:36;5.70;99.90
5023;DHT22;2530;47.990;7.866;2023-02-02T05:02:02;5.70;99.90
5023;DHT22;2530;47.990;7.866;2023-02-02T05:04:28;5.70;99.90
5023;DHT22;2530;47.990;7.866;2023-02-02T05:06:53;5.80;99.90
5023;DHT22;2530;47.990;7.866;2023-02-02T05:09:19;5.80;99.90
5023;DHT22;2530;47.990;7.866;2023-02-02T05:11:44;5.80;99.90
5023;DHT22;2530;47.990;7.866;2023-02-02T05:14:10;5.70;99.90
5023;DHT22;2530;47.990;7.866;2023-02-02T05:16:36;5.80;99.90
5023;DHT22;2530;47.990;7.866;2023-02-02T05:19:01;5.70;99.90
5023;DHT22;2530;47.990;7.866;2023-02-02T05:21:27;5.70;99.90
5023;DHT22;2530;47.990;7.866;2023-02-02T05:23:53;5.70;99.90
5023;DHT22;2530;47.990;7.866;2023-02-02T05:26:21;5.70;99.90
5023;DHT22;2530;47.990;7.866;2023-02-02T05:28:48;5.60;99.90
5023;DHT22;2530;47.990;7.866;2023-02-02T05:31:14;5.70;99.90
5023;DHT22;2530;47.990;7.866;2023-02-02T05:33:39;5.70;99.90
5023;DHT22;2530;47.990;7.866;2023-02-02T05:36:05;5.70;99.90
5023;DHT22;2530;47.990;7.866;2023-02-02T05:38:31;5.70;99.90
5023;DHT22;2530;47.990;7.866;2023-02-02T05:40:56;5.70;99.90
5023;DHT22;2530;47.990;7.866;2023-02-02T05:43:26;5.70;99.90
5023;DHT22;2530;47.990;7.866;2023-02-02T05:45:52;5.70;99.90
5023;DHT22;2530;47.990;7.866;2023-02-02T05:48:18;5.70;99.90
5023;DHT22;2530;47.990;7.866;2023-02-02T05:50:45;5.60;99.90
5023;DHT22;2530;47.990;7.866;2023-02-02T05:53:14;5.60;99.90
5023;DHT22;2530;47.990;7.866;2023-02-02T05:55:40;5.70;99.90
5023;DHT22;2530;47.990;7.866;2023-02-02T05:58:06;5.70;99.90
5023;DHT22;2530;47.990;7.866;2023-02-02T06:00:31;5.60;99.90
5023;DHT22;2530;47.990;7.866;2023-02-02T06:02:57;5.60;99.90
5023;DHT22;2530;47.990;7.866;2023-02-02T06:05:23;5.70;99.90
5023;DHT22;2530;47.990;7.866;2023-02-02T06:07:48;5.70;99.90
5023;DHT22;2530;47.990;7.866;2023-02-02T06:10:14;5.70;99.90
5023;DHT22;2530;47.990;7.866;2023-02-02T06:12:40;5.70;99.90
5023;DHT22;2530;47.990;7.866;2023-02-02T06:15:06;5.70;99.90
5023;DHT22;2530;47.990;7.866;2023-02-02T06:17:31;5.70;99.90
5023;DHT22;2530;47.990;7.866;2023-02-02T06:19:57;5.70;99.90
5023;DHT22;2530;47.990;7.866;2023-02-02T06:22:22;5.70;99.90
5023;DHT22;2530;47.990;7.866;2023-02-02T06:24:48;5.70;99.90
5023;DHT22;2530;47.990;7.866;2023-02-02T06:27:13;5.80;99.90
5023;DHT22;2530;47.990;7.866;2023-02-02T06:29:39;5.80;99.90
5023;DHT22;2530;47.990;7.866;2023-02-02T06:32:04;5.80;99.90
5023;DHT22;2530;47.990;7.866;2023-02-02T06:34:30;5.80;99.90
5023;DHT22;2530;47.990;7.866;2023-02-02T06:36:55;5.80;99.90
5023;DHT22;2530;47.990;7.866;2023-02-02T06:39:21;5.80;99.90
5023;DHT22;2530;47.990;7.866;2023-02-02T06:41:46;5.80;99.90
5023;DHT22;2530;47.990;7.866;2023-02-02T06:44:13;5.80;99.90
5023;DHT22;2530;47.990;7.866;2023-02-02T06:46:40;5.80;99.90
5023;DHT22;2530;47.990;7.866;2023-02-02T06:49:05;5.70;99.90
5023;DHT22;2530;47.990;7.866;2023-02-02T06:51:31;5.80;99.90
5023;DHT22;2530;47.990;7.866;2023-02-02T06:53:56;5.70;99.90
5023;DHT22;2530;47.990;7.866;2023-02-02T06:56:21;5.80;99.90
5023;DHT22;2530;47.990;7.866;2023-02-02T06:58:47;5.70;99.90
5023;DHT22;2530;47.990;7.866;2023-02-02T07:01:13;5.70;99.90
5023;DHT22;2530;47.990;7.866;2023-02-02T07:03:39;5.80;99.90
5023;DHT22;2530;47.990;7.866;2023-02-02T07:06:20;5.80;99.90
5023;DHT22;2530;47.990;7.866;2023-02-02T07:08:47;5.80;99.90
5023;DHT22;2530;47.990;7.866;2023-02-02T07:11:14;5.80;99.90
5023;DHT22;2530;47.990;7.866;2023-02-02T07:13:40;5.80;99.90
5023;DHT22;2530;47.990;7.866;2023-02-02T07:16:06;5.80;99.90
5023;DHT22;2530;47.990;7.866;2023-02-02T07:18:33;6.00;99.90
5023;DHT22;2530;47.990;7.866;2023-02-02T07:21:01;5.90;99.90
5023;DHT22;2530;47.990;7.866;2023-02-02T07:23:27;5.90;99.90
5023;DHT22;2530;47.990;7.866;2023-02-02T07:26:05;5.90;99.90
5023;DHT22;2530;47.990;7.866;2023-02-02T07:28:31;5.90;99.90
5023;DHT22;2530;47.990;7.866;2023-02-02T07:30:57;5.90;99.90
5023;DHT22;2530;47.990;7.866;2023-02-02T07:33:23;5.90;99.90
5023;DHT22;2530;47.990;7.866;2023-02-02T07:35:49;5.90;99.90
5023;DHT22;2530;47.990;7.866;2023-02-02T07:38:14;5.90;99.90
5023;DHT22;2530;47.990;7.866;2023-02-02T07:40:40;5.90;99.90
5023;DHT22;2530;47.990;7.866;2023-02-02T07:43:05;5.90;99.90
5023;DHT22;2530;47.990;7.866;2023-02-02T07:45:31;5.80;99.90
5023;DHT22;2530;47.990;7.866;2023-02-02T07:47:57;5.80;99.90
5023;DHT22;2530;47.990;7.866;2023-02-02T07:50:23;5.90;99.90
5023;DHT22;2530;47.990;7.866;2023-02-02T07:52:50;5.90;99.90
5023;DHT22;2530;47.990;7.866;2023-02-02T07:55:16;5.90;99.90
5023;DHT22;2530;47.990;7.866;2023-02-02T07:57:41;6.00;99.90
5023;DHT22;2530;47.990;7.866;2023-02-02T08:00:07;5.90;99.90
5023;DHT22;2530;47.990;7.866;2023-02-02T08:02:33;5.80;99.90
5023;DHT22;2530;47.990;7.866;2023-02-02T08:04:59;5.80;99.90
5023;DHT22;2530;47.990;7.866;2023-02-02T08:07:25;5.80;99.90
5023;DHT22;2530;47.990;7.866;2023-02-02T08:09:50;5.90;99.90
5023;DHT22;2530;47.990;7.866;2023-02-02T08:12:17;5.90;99.90
5023;DHT22;2530;47.990;7.866;2023-02-02T08:14:45;5.90;99.90
5023;DHT22;2530;47.990;7.866;2023-02-02T08:17:11;6.00;99.90
5023;DHT22;2530;47.990;7.866;2023-02-02T08:19:37;6.10;99.90
5023;DHT22;2530;47.990;7.866;2023-02-02T08:22:03;6.00;99.90
5023;DHT22;2530;47.990;7.866;2023-02-02T08:24:28;6.00;99.90
5023;DHT22;2530;47.990;7.866;2023-02-02T08:26:54;6.00;99.90
5023;DHT22;2530;47.990;7.866;2023-02-02T08:29:19;6.00;99.90
5023;DHT22;2530;47.990;7.866;2023-02-02T08:31:45;6.10;99.90
5023;DHT22;2530;47.990;7.866;2023-02-02T08:34:11;6.10;99.90
5023;DHT22;2530;47.990;7.866;2023-02-02T08:36:37;6.10;99.90
5023;DHT22;2530;47.990;7.866;2023-02-02T08:39:06;6.20;99.90
5023;DHT22;2530;47.990;7.866;2023-02-02T08:41:32;6.20;99.90
5023;DHT22;2530;47.990;7.866;2023-02-02T08:43:58;6.30;99.90
5023;DHT22;2530;47.990;7.866;2023-02-02T08:46:24;6.20;99.90
5023;DHT22;2530;47.990;7.866;2023-02-02T08:48:49;6.30;99.90
5023;DHT22;2530;47.990;7.866;2023-02-02T08:51:17;6.30;99.90
5023;DHT22;2530;47.990;7.866;2023-02-02T08:53:44;6.30;99.90
5023;DHT22;2530;47.990;7.866;2023-02-02T08:56:14;6.30;99.90
5023;DHT22;2530;47.990;7.866;2023-02-02T08:58:44;6.30;99.90
5023;DHT22;2530;47.990;7.866;2023-02-02T09:01:16;6.40;99.90
5023;DHT22;2530;47.990;7.866;2023-02-02T09:03:42;6.40;99.90
5023;DHT22;2530;47.990;7.866;2023-02-02T09:06:11;6.50;99.90
5023;DHT22;2530;47.990;7.866;2023-02-02T09:08:37;6.50;99.90
5023;DHT22;2530;47.990;7.866;2023-02-02T09:11:08;6.40;99.90
5023;DHT22;2530;47.990;7.866;2023-02-02T09:13:34;6.50;99.90
5023;DHT22;2530;47.990;7.866;2023-02-02T09:16:01;6.40;99.90
5023;DHT22;2530;47.990;7.866;2023-02-02T09:18:27;6.40;99.90
5023;DHT22;2530;47.990;7.866;2023-02-02T09:20:52;6.40;99.90
5023;DHT22;2530;47.990;7.866;2023-02-02T09:23:18;6.40;99.90
5023;DHT22;2530;47.990;7.866;2023-02-02T09:25:44;6.40;99.90
5023;DHT22;2530;47.990;7.866;2023-02-02T09:28:09;6.50;99.90
5023;DHT22;2530;47.990;7.866;2023-02-02T09:30:35;6.40;99.90
5023;DHT22;2530;47.990;7.866;2023-02-02T09:33:00;6.50;99.90
5023;DHT22;2530;47.990;7.866;2023-02-02T09:35:26;6.40;99.90
5023;DHT22;2530;47.990;7.866;2023-02-02T09:37:51;6.40;99.90
5023;DHT22;2530;47.990;7.866;2023-02-02T09:40:18;6.50;99.90
5023;DHT22;2530;47.990;7.866;2023-02-02T09:42:58;6.60;99.90
5023;DHT22;2530;47.990;7.866;2023-02-02T09:45:42;6.50;99.90
5023;DHT22;2530;47.990;7.866;2023-02-02T09:50:46;6.50;99.90
5023;DHT22;2530;47.990;7.866;2023-02-02T09:53:19;6.60;99.90
5023;DHT22;2530;47.990;7.866;2023-02-02T09:55:48;6.60;99.90
5023;DHT22;2530;47.990;7.866;2023-02-02T10:01:25;6.50;99.90
5023;DHT22;2530;47.990;7.866;2023-02-02T10:04:05;6.50;99.90
5023;DHT22;2530;47.990;7.866;2023-02-02T10:06:39;6.50;99.90
5023;DHT22;2530;47.990;7.866;2023-02-02T10:09:36;6.60;99.90
5023;DHT22;2530;47.990;7.866;2023-02-02T10:14:56;6.60;99.90
5023;DHT22;2530;47.990;7.866;2023-02-02T10:17:35;6.50;99.90
5023;DHT22;2530;47.990;7.866;2023-02-02T10:20:14;6.60;99.90
5023;DHT22;2530;47.990;7.866;2023-02-02T10:22:41;6.50;99.90
5023;DHT22;2530;47.990;7.866;2023-02-02T10:25:11;6.60;99.90
5023;DHT22;2530;47.990;7.866;2023-02-02T10:27:39;6.60;99.90
5023;DHT22;2530;47.990;7.866;2023-02-02T10:30:36;6.50;99.90
5023;DHT22;2530;47.990;7.866;2023-02-02T10:33:13;6.50;99.90
5023;DHT22;2530;47.990;7.866;2023-02-02T10:35:57;6.50;99.90
5023;DHT22;2530;47.990;7.866;2023-02-02T10:38:37;6.60;99.90
5023;DHT22;2530;47.990;7.866;2023-02-02T10:41:26;6.50;99.90
5023;DHT22;2530;47.990;7.866;2023-02-02T10:44:13;6.60;99.90
5023;DHT22;2530;47.990;7.866;2023-02-02T10:46:51;6.50;99.90
5023;DHT22;2530;47.990;7.866;2023-02-02T10:49:35;6.50;99.90
5023;DHT22;2530;47.990;7.866;2023-02-02T10:54:51;6.70;99.90
5023;DHT22;2530;47.990;7.866;2023-02-02T11:02:33;6.50;99.90
5023;DHT22;2530;47.990;7.866;2023-02-02T11:04:59;6.60;99.90
5023;DHT22;2530;47.990;7.866;2023-02-02T11:07:43;6.50;99.90
5023;DHT22;2530;47.990;7.866;2023-02-02T11:10:09;6.50;99.90
5023;DHT22;2530;47.990;7.866;2023-02-02T11:12:36;6.50;99.90
5023;DHT22;2530;47.990;7.866;2023-02-02T11:15:24;6.60;99.90
5023;DHT22;2530;47.990;7.866;2023-02-02T11:17:50;6.60;99.90
5023;DHT22;2530;47.990;7.866;2023-02-02T11:20:34;6.60;99.90
5023;DHT22;2530;47.990;7.866;2023-02-02T11:23:04;6.60;99.90
5023;DHT22;2530;47.990;7.866;2023-02-02T11:25:35;6.60;99.90
5023;DHT22;2530;47.990;7.866;2023-02-02T11:28:12;6.70;99.90
5023;DHT22;2530;47.990;7.866;2023-02-02T11:30:48;6.80;99.90
5023;DHT22;2530;47.990;7.866;2023-02-02T11:33:26;6.90;99.90
5023;DHT22;2530;47.990;7.866;2023-02-02T11:36:01;6.90;99.90
5023;DHT22;2530;47.990;7.866;2023-02-02T11:38:27;7.00;99.90
5023;DHT22;2530;47.990;7.866;2023-02-02T11:40:59;7.00;99.90
5023;DHT22;2530;47.990;7.866;2023-02-02T11:43:48;7.00;99.90
5023;DHT22;2530;47.990;7.866;2023-02-02T11:48:56;7.00;99.90
5023;DHT22;2530;47.990;7.866;2023-02-02T11:51:24;7.10;99.90
5023;DHT22;2530;47.990;7.866;2023-02-02T11:56:26;7.10;99.90
5023;DHT22;2530;47.990;7.866;2023-02-02T11:58:53;7.10;99.90
5023;DHT22;2530;47.990;7.866;2023-02-02T12:01:29;7.10;99.90
5023;DHT22;2530;47.990;7.866;2023-02-02T12:04:00;7.10;99.90
5023;DHT22;2530;47.990;7.866;2023-02-02T12:06:36;7.00;99.90
5023;DHT22;2530;47.990;7.866;2023-02-02T12:12:35;7.10;99.90
5023;DHT22;2530;47.990;7.866;2023-02-02T12:15:24;7.20;99.90
5023;DHT22;2530;47.990;7.866;2023-02-02T12:18:05;7.20;99.90
5023;DHT22;2530;47.990;7.866;2023-02-02T12:25:57;7.20;99.90
5023;DHT22;2530;47.990;7.866;2023-02-02T12:31:08;7.10;99.90
5023;DHT22;2530;47.990;7.866;2023-02-02T12:33:52;7.10;99.90
5023;DHT22;2530;47.990;7.866;2023-02-02T12:36:36;7.10;99.90
5023;DHT22;2530;47.990;7.866;2023-02-02T12:42:24;7.10;99.90
5023;DHT22;2530;47.990;7.866;2023-02-02T12:48:00;7.00;99.90
5023;DHT22;2530;47.990;7.866;2023-02-02T12:51:06;7.00;99.90
5023;DHT22;2530;47.990;7.866;2023-02-02T12:56:39;7.00;99.90
5023;DHT22;2530;47.990;7.866;2023-02-02T13:07:30;6.90;99.90
5023;DHT22;2530;47.990;7.866;2023-02-02T13:12:36;6.90;99.90
5023;DHT22;2530;47.990;7.866;2023-02-02T13:15:07;6.90;99.90
5023;DHT22;2530;47.990;7.866;2023-02-02T13:17:42;6.90;99.90
5023;DHT22;2530;47.990;7.866;2023-02-02T13:22:46;6.90;99.90
5023;DHT22;2530;47.990;7.866;2023-02-02T13:25:20;6.90;99.90
5023;DHT22;2530;47.990;7.866;2023-02-02T13:27:47;7.00;99.90
5023;DHT22;2530;47.990;7.866;2023-02-02T13:30:36;7.00;99.90
5023;DHT22;2530;47.990;7.866;2023-02-02T13:33:28;7.00;99.90
5023;DHT22;2530;47.990;7.866;2023-02-02T13:36:02;6.90;99.90
5023;DHT22;2530;47.990;7.866;2023-02-02T13:38:30;6.90;99.90
5023;DHT22;2530;47.990;7.866;2023-02-02T13:40:59;6.90;99.90
5023;DHT22;2530;47.990;7.866;2023-02-02T13:48:59;7.00;99.90
5023;DHT22;2530;47.990;7.866;2023-02-02T13:57:25;7.10;99.90
5023;DHT22;2530;47.990;7.866;2023-02-02T14:00:15;7.10;99.90
5023;DHT22;2530;47.990;7.866;2023-02-02T14:03:03;7.10;99.90
5023;DHT22;2530;47.990;7.866;2023-02-02T14:05:40;7.00;99.90
5023;DHT22;2530;47.990;7.866;2023-02-02T14:08:17;7.00;99.90
5023;DHT22;2530;47.990;7.866;2023-02-02T14:10:56;6.90;99.90
5023;DHT22;2530;47.990;7.866;2023-02-02T14:13:33;6.90;99.90
5023;DHT22;2530;47.990;7.866;2023-02-02T14:16:41;6.90;99.90
5023;DHT22;2530;47.990;7.866;2023-02-02T14:27:01;6.70;99.90
5023;DHT22;2530;47.990;7.866;2023-02-02T14:34:43;6.60;99.90
5023;DHT22;2530;47.990;7.866;2023-02-02T14:45:36;6.70;99.90
5023;DHT22;2530;47.990;7.866;2023-02-02T14:48:10;6.80;99.90
5023;DHT22;2530;47.990;7.866;2023-02-02T14:53:24;6.80;99.90
5023;DHT22;2530;47.990;7.866;2023-02-02T14:56:14;6.90;99.90
5023;DHT22;2530;47.990;7.866;2023-02-02T14:58:45;6.90;99.90
5023;DHT22;2530;47.990;7.866;2023-02-02T15:03:54;7.00;99.90
5023;DHT22;2530;47.990;7.866;2023-02-02T15:06:32;7.10;99.90
5023;DHT22;2530;47.990;7.866;2023-02-02T15:20:17;7.20;99.90
5023;DHT22;2530;47.990;7.866;2023-02-02T15:33:50;7.20;99.90
5023;DHT22;2530;47.990;7.866;2023-02-02T15:38:47;7.30;99.90
5023;DHT22;2530;47.990;7.866;2023-02-02T15:41:25;7.30;99.90
5023;DHT22;2530;47.990;7.866;2023-02-02T15:43:52;7.30;99.90
5023;DHT22;2530;47.990;7.866;2023-02-02T15:46:24;7.30;99.90
5023;DHT22;2530;47.990;7.866;2023-02-02T15:49:13;7.30;99.90
5023;DHT22;2530;47.990;7.866;2023-02-02T15:51:43;7.30;99.90
5023;DHT22;2530;47.990;7.866;2023-02-02T15:54:26;7.40;99.90
5023;DHT22;2530;47.990;7.866;2023-02-02T15:56:54;7.30;99.90
5023;DHT22;2530;47.990;7.866;2023-02-02T15:59:26;7.30;99.90
5023;DHT22;2530;47.990;7.866;2023-02-02T16:04:41;7.40;99.90
5023;DHT22;2530;47.990;7.866;2023-02-02T16:07:18;7.40;99.90
5023;DHT22;2530;47.990;7.866;2023-02-02T16:09:46;7.40;99.90
5023;DHT22;2530;47.990;7.866;2023-02-02T16:12:17;7.40;99.90
5023;DHT22;2530;47.990;7.866;2023-02-02T16:14:49;7.40;99.90
5023;DHT22;2530;47.990;7.866;2023-02-02T16:17:23;7.40;99.90
5023;DHT22;2530;47.990;7.866;2023-02-02T16:19:58;7.40;99.90
5023;DHT22;2530;47.990;7.866;2023-02-02T16:22:26;7.40;99.90
5023;DHT22;2530;47.990;7.866;2023-02-02T16:24:57;7.50;99.90
5023;DHT22;2530;47.990;7.866;2023-02-02T16:27:25;7.50;99.90
5023;DHT22;2530;47.990;7.866;2023-02-02T16:29:51;7.40;99.90
5023;DHT22;2530;47.990;7.866;2023-02-02T16:32:24;7.40;99.90
5023;DHT22;2530;47.990;7.866;2023-02-02T16:34:50;7.40;99.90
5023;DHT22;2530;47.990;7.866;2023-02-02T16:37:23;7.50;99.90
5023;DHT22;2530;47.990;7.866;2023-02-02T16:39:56;7.50;99.90
5023;DHT22;2530;47.990;7.866;2023-02-02T16:42:38;7.50;99.90
5023;DHT22;2530;47.990;7.866;2023-02-02T16:45:04;7.60;99.90
5023;DHT22;2530;47.990;7.866;2023-02-02T16:47:32;7.60;99.90
5023;DHT22;2530;47.990;7.866;2023-02-02T16:52:47;7.60;99.90
5023;DHT22;2530;47.990;7.866;2023-02-02T16:55:16;7.50;99.90
5023;DHT22;2530;47.990;7.866;2023-02-02T16:57:43;7.60;99.90
5023;DHT22;2530;47.990;7.866;2023-02-02T17:00:39;7.50;99.90
5023;DHT22;2530;47.990;7.866;2023-02-02T17:03:10;7.50;99.90
5023;DHT22;2530;47.990;7.866;2023-02-02T17:05:46;7.50;99.90
5023;DHT22;2530;47.990;7.866;2023-02-02T17:08:12;7.50;99.90
5023;DHT22;2530;47.990;7.866;2023-02-02T17:10:40;7.50;99.90
5023;DHT22;2530;47.990;7.866;2023-02-02T17:15:58;7.50;99.90
5023;DHT22;2530;47.990;7.866;2023-02-02T17:18:24;7.50;99.90
5023;DHT22;2530;47.990;7.866;2023-02-02T17:20:52;7.60;99.90
5023;DHT22;2530;47.990;7.866;2023-02-02T17:23:23;7.60;99.90
5023;DHT22;2530;47.990;7.866;2023-02-02T17:25:50;7.50;99.90
5023;DHT22;2530;47.990;7.866;2023-02-02T17:28:18;7.60;99.90
5023;DHT22;2530;47.990;7.866;2023-02-02T17:30:46;7.60;99.90
5023;DHT22;2530;47.990;7.866;2023-02-02T17:33:15;7.50;99.90
5023;DHT22;2530;47.990;7.866;2023-02-02T17:35:42;7.50;99.90
5023;DHT22;2530;47.990;7.866;2023-02-02T17:38:08;7.50;99.90
5023;DHT22;2530;47.990;7.866;2023-02-02T17:40:34;7.40;99.90
5023;DHT22;2530;47.990;7.866;2023-02-02T17:43:00;7.40;99.90
5023;DHT22;2530;47.990;7.866;2023-02-02T17:45:34;7.40;99.90
5023;DHT22;2530;47.990;7.866;2023-02-02T17:48:01;7.40;99.90
5023;DHT22;2530;47.990;7.866;2023-02-02T17:50:28;7.30;99.90
5023;DHT22;2530;47.990;7.866;2023-02-02T17:52:55;7.20;99.90
5023;DHT22;2530;47.990;7.866;2023-02-02T17:55:23;7.20;99.90
5023;DHT22;2530;47.990;7.866;2023-02-02T17:57:49;7.10;99.90
5023;DHT22;2530;47.990;7.866;2023-02-02T18:00:17;7.10;99.90
5023;DHT22;2530;47.990;7.866;2023-02-02T18:02:43;7.00;99.90
5023;DHT22;2530;47.990;7.866;2023-02-02T18:05:09;7.00;99.90
5023;DHT22;2530;47.990;7.866;2023-02-02T18:07:35;7.10;99.90
5023;DHT22;2530;47.990;7.866;2023-02-02T18:10:02;7.10;99.90
5023;DHT22;2530;47.990;7.866;2023-02-02T18:12:28;7.00;99.90
5023;DHT22;2530;47.990;7.866;2023-02-02T18:14:53;7.00;99.90
5023;DHT22;2530;47.990;7.866;2023-02-02T18:17:19;7.00;99.90
5023;DHT22;2530;47.990;7.866;2023-02-02T18:19:45;7.10;99.90
5023;DHT22;2530;47.990;7.866;2023-02-02T18:22:11;7.10;99.90
5023;DHT22;2530;47.990;7.866;2023-02-02T18:24:40;7.10;99.90
5023;DHT22;2530;47.990;7.866;2023-02-02T18:27:06;7.10;99.90
5023;DHT22;2530;47.990;7.866;2023-02-02T18:29:32;7.10;99.90
5023;DHT22;2530;47.990;7.866;2023-02-02T18:31:58;7.20;99.90
5023;DHT22;2530;47.990;7.866;2023-02-02T18:34:27;7.10;99.90
5023;DHT22;2530;47.990;7.866;2023-02-02T18:36:52;7.10;99.90
5023;DHT22;2530;47.990;7.866;2023-02-02T18:39:18;7.10;99.90
5023;DHT22;2530;47.990;7.866;2023-02-02T18:41:43;7.10;99.90
5023;DHT22;2530;47.990;7.866;2023-02-02T18:44:09;7.00;99.90
5023;DHT22;2530;47.990;7.866;2023-02-02T18:46:34;7.00;99.90
5023;DHT22;2530;47.990;7.866;2023-02-02T18:48:59;7.00;99.90
5023;DHT22;2530;47.990;7.866;2023-02-02T18:51:25;7.00;99.90
5023;DHT22;2530;47.990;7.866;2023-02-02T18:53:51;7.00;99.90
5023;DHT22;2530;47.990;7.866;2023-02-02T18:56:16;7.00;99.90